createdAt,value
2022-12-08T00:01:56.008Z,3.28
2022-12-08T00:04:28.691Z,2.80
2022-12-08T00:07:14.330Z,2.83
2022-12-08T00:09:42.225Z,2.95
2022-12-08T00:12:13.451Z,3.17
2022-12-08T00:14:44.760Z,3.20
2022-12-08T00:17:15.785Z,3.17
2022-12-08T00:19:46.739Z,3.00
2022-12-08T00:22:17.964Z,3.25
2022-12-08T00:24:46.427Z,3.13
2022-12-08T00:27:18.087Z,3.45
2022-12-08T00:29:48.091Z,3.22
2022-12-08T00:32:23.621Z,3.63
2022-12-08T00:34:50.686Z,3.05
2022-12-08T00:37:24.401Z,2.80
2022-12-08T00:39:57.288Z,2.83
2022-12-08T00:42:29.122Z,2.78
2022-12-08T00:44:58.941Z,3.20
2022-12-08T00:47:26.329Z,3.40
2022-12-08T00:52:55.839Z,3.47
2022-12-08T00:55:28.281Z,2.35
2022-12-08T00:57:58.051Z,3.05
2022-12-08T01:00:27.167Z,2.78
2022-12-08T01:02:54.969Z,2.55
2022-12-08T01:05:28.280Z,3.60
2022-12-08T01:07:58.947Z,2.88
2022-12-08T01:10:32.399Z,3.53
2022-12-08T01:12:59.360Z,3.35
2022-12-08T01:15:29.370Z,3.58
2022-12-08T01:17:59.301Z,4.07
2022-12-08T01:20:29.171Z,2.88
2022-12-08T01:22:56.370Z,3.60
2022-12-08T01:25:30.809Z,2.70
2022-12-08T01:28:01.097Z,2.78
2022-12-08T01:30:28.116Z,2.42
2022-12-08T01:32:56.011Z,2.55
2022-12-08T01:35:23.321Z,2.75
2022-12-08T01:37:50.995Z,2.75
2022-12-08T01:40:17.926Z,2.53
2022-12-08T01:42:44.879Z,2.58
2022-12-08T01:45:28.087Z,2.38
2022-12-08T01:48:01.808Z,2.50
2022-12-08T01:50:30.010Z,2.45
2022-12-08T01:52:59.497Z,2.58
2022-12-08T01:55:33.580Z,2.65
2022-12-08T01:58:06.059Z,3.10
2022-12-08T02:00:36.596Z,2.63
2022-12-08T02:03:08.800Z,3.00
2022-12-08T02:05:37.278Z,2.85
2022-12-08T02:08:07.165Z,3.10
2022-12-08T02:10:45.337Z,2.50
2022-12-08T02:13:19.136Z,3.05
2022-12-08T02:15:49.138Z,3.67
2022-12-08T02:18:21.966Z,3.55
2022-12-08T02:20:56.253Z,4.32
2022-12-08T02:23:28.363Z,3.92
2022-12-08T02:26:02.283Z,3.28
2022-12-08T02:28:38.051Z,3.55
2022-12-08T02:31:20.451Z,3.75
2022-12-08T02:34:04.532Z,3.33
2022-12-08T02:36:44.965Z,3.92
2022-12-08T02:39:25.417Z,3.60
2022-12-08T02:42:05.239Z,3.67
2022-12-08T02:44:39.884Z,3.40
2022-12-08T02:47:11.286Z,3.17
2022-12-08T02:49:41.333Z,4.07
2022-12-08T02:52:14.046Z,3.60
2022-12-08T02:54:42.647Z,4.57
2022-12-08T02:57:15.474Z,3.97
2022-12-08T03:00:01.067Z,3.30
2022-12-08T03:02:37.198Z,3.83
2022-12-08T03:05:14.562Z,3.60
2022-12-08T03:07:48.158Z,3.55
2022-12-08T03:10:31.090Z,2.75
2022-12-08T03:13:04.556Z,4.07
2022-12-08T03:15:36.170Z,3.85
2022-12-08T03:18:07.915Z,4.07
2022-12-08T03:20:38.093Z,2.90
2022-12-08T03:23:15.918Z,3.05
2022-12-08T03:26:01.913Z,3.90
2022-12-08T03:31:22.550Z,3.67
2022-12-08T03:33:53.099Z,3.92
2022-12-08T03:36:20.716Z,3.50
2022-12-08T03:38:53.280Z,3.53
2022-12-08T03:41:27.813Z,3.50
2022-12-08T03:44:02.004Z,3.90
2022-12-08T03:46:37.382Z,3.63
2022-12-08T03:49:07.052Z,4.07
2022-12-08T03:51:37.532Z,4.03
2022-12-08T03:54:05.016Z,4.00
2022-12-08T03:56:33.488Z,4.47
2022-12-08T03:59:04.371Z,4.35
2022-12-08T04:01:32.254Z,3.28
2022-12-08T04:04:05.289Z,2.90
2022-12-08T04:06:34.802Z,2.78
2022-12-08T04:09:02.162Z,3.13
2022-12-08T04:11:52.617Z,4.18
2022-12-08T04:14:24.737Z,4.55
2022-12-08T04:16:53.437Z,3.97
2022-12-08T04:19:27.732Z,4.50
2022-12-08T04:21:57.684Z,3.70
2022-12-08T04:24:26.309Z,3.28
2022-12-08T04:26:56.737Z,3.60
2022-12-08T04:29:29.871Z,3.40
2022-12-08T04:32:00.118Z,4.72
2022-12-08T04:34:33.804Z,4.63
2022-12-08T04:37:04.852Z,4.60
2022-12-08T04:39:34.962Z,3.75
2022-12-08T04:42:05.066Z,4.07
2022-12-08T04:44:35.201Z,4.03
2022-12-08T04:47:05.528Z,2.88
2022-12-08T04:49:38.753Z,3.78
2022-12-08T04:52:08.492Z,3.78
2022-12-08T04:54:39.193Z,3.38
2022-12-08T04:57:12.772Z,3.55
2022-12-08T04:59:39.681Z,3.60
2022-12-08T05:02:12.066Z,4.32
2022-12-08T05:04:42.106Z,4.00
2022-12-08T05:07:09.961Z,3.10
2022-12-08T05:09:42.684Z,4.53
2022-12-08T05:12:16.271Z,4.68
2022-12-08T05:14:48.495Z,4.35
2022-12-08T05:17:18.692Z,4.40
2022-12-08T05:19:45.719Z,3.83
2022-12-08T05:22:19.121Z,3.83
2022-12-08T05:24:54.642Z,4.00
2022-12-08T05:27:26.916Z,4.70
2022-12-08T05:30:00.038Z,4.40
2022-12-08T05:32:32.546Z,3.75
2022-12-08T05:35:12.041Z,4.07
2022-12-08T05:37:38.987Z,4.63
2022-12-08T05:40:07.873Z,5.25
2022-12-08T05:42:40.970Z,4.30
2022-12-08T05:45:11.412Z,4.35
2022-12-08T05:47:44.779Z,4.57
2022-12-08T05:50:15.296Z,4.45
2022-12-08T05:52:45.249Z,4.80
2022-12-08T05:55:18.063Z,4.20
2022-12-08T05:57:45.242Z,5.20
2022-12-08T06:00:15.633Z,5.40
2022-12-08T06:02:46.334Z,5.00
2022-12-08T06:05:20.237Z,5.18
2022-12-08T06:07:50.860Z,5.50
2022-12-08T06:10:21.066Z,5.43
2022-12-08T06:12:51.001Z,5.05
2022-12-08T06:15:21.000Z,5.13
2022-12-08T06:17:54.437Z,4.55
2022-12-08T06:20:23.968Z,4.60
2022-12-08T06:22:55.001Z,4.78
2022-12-08T06:25:26.310Z,4.22
2022-12-08T06:27:54.055Z,3.20
2022-12-08T06:30:21.041Z,4.45
2022-12-08T06:32:51.481Z,5.38
2022-12-08T06:35:18.893Z,5.45
2022-12-08T06:37:51.776Z,4.28
2022-12-08T06:40:22.056Z,5.82
2022-12-08T06:42:55.635Z,2.92
2022-12-08T06:45:23.042Z,4.45
2022-12-08T06:47:53.877Z,5.20
2022-12-08T06:50:24.160Z,4.38
2022-12-08T06:53:01.133Z,4.05
2022-12-08T06:58:20.529Z,4.15
2022-12-08T07:00:51.070Z,6.18
2022-12-08T07:03:18.312Z,4.95
2022-12-08T07:05:45.567Z,5.60
2022-12-08T07:08:16.206Z,5.43
2022-12-08T07:10:46.480Z,5.72
2022-12-08T07:13:14.046Z,5.32
2022-12-08T07:15:46.636Z,5.45
2022-12-08T07:18:18.833Z,4.07
2022-12-08T07:20:49.252Z,5.43
2022-12-08T07:23:16.642Z,2.95
2022-12-08T07:25:46.148Z,4.85
2022-12-08T07:28:13.790Z,5.35
2022-12-08T07:30:46.370Z,5.45
2022-12-08T07:33:15.775Z,4.78
2022-12-08T07:35:49.278Z,5.40
2022-12-08T07:38:20.481Z,5.47
2022-12-08T07:40:47.598Z,5.82
2022-12-08T07:43:14.642Z,4.70
2022-12-08T07:45:45.022Z,5.70
2022-12-08T07:48:15.082Z,5.57
2022-12-08T07:50:42.634Z,3.95
2022-12-08T07:53:13.792Z,5.80
2022-12-08T07:55:45.016Z,5.90
2022-12-08T07:58:12.061Z,3.65
2022-12-08T08:00:39.074Z,5.15
2022-12-08T08:03:14.077Z,5.97
2022-12-08T08:05:41.636Z,5.18
2022-12-08T08:08:12.302Z,4.25
2022-12-08T08:10:39.634Z,5.78
2022-12-08T08:13:11.833Z,5.07
2022-12-08T08:15:41.787Z,5.40
2022-12-08T08:18:11.733Z,4.78
2022-12-08T08:20:44.128Z,4.32
2022-12-08T08:23:13.937Z,5.43
2022-12-08T08:25:44.634Z,5.60
2022-12-08T08:28:12.951Z,4.25
2022-12-08T08:30:42.729Z,4.68
2022-12-08T08:33:13.905Z,4.68
2022-12-08T08:35:49.281Z,3.88
2022-12-08T08:38:17.854Z,4.78
2022-12-08T08:40:50.525Z,4.30
2022-12-08T08:43:38.576Z,4.70
2022-12-08T08:46:06.628Z,5.30
2022-12-08T08:48:37.169Z,4.80
2022-12-08T08:51:08.896Z,3.42
2022-12-08T08:53:39.600Z,4.45
2022-12-08T08:56:14.214Z,5.05
2022-12-08T08:58:47.381Z,3.67
2022-12-08T09:01:21.482Z,3.25
2022-12-08T09:03:49.207Z,3.42
2022-12-08T09:06:19.974Z,4.22
2022-12-08T09:08:50.509Z,3.08
2022-12-08T09:11:18.942Z,4.22
2022-12-08T09:13:50.908Z,4.43
2022-12-08T09:16:24.488Z,3.08
2022-12-08T09:18:57.648Z,3.53
2022-12-08T09:21:28.939Z,2.40
2022-12-08T09:24:02.545Z,2.58
2022-12-08T09:26:35.870Z,2.80
2022-12-08T09:29:09.249Z,1.92
2022-12-08T09:31:37.704Z,3.90
2022-12-08T09:34:11.403Z,4.38
2022-12-08T09:36:41.158Z,3.70
2022-12-08T09:39:13.138Z,4.20
2022-12-08T09:41:50.677Z,4.32
2022-12-08T09:44:36.358Z,3.72
2022-12-08T09:47:16.318Z,4.55
2022-12-08T09:49:56.660Z,3.85
2022-12-08T09:55:39.352Z,3.42
2022-12-08T09:58:17.610Z,4.25
2022-12-08T10:00:44.571Z,4.30
2022-12-08T10:03:17.533Z,3.38
2022-12-08T10:05:50.451Z,4.75
2022-12-08T10:08:31.754Z,3.63
2022-12-08T10:11:07.759Z,3.65
2022-12-08T10:13:46.996Z,2.88
2022-12-08T10:16:35.375Z,4.07
2022-12-08T10:19:23.408Z,4.32
2022-12-08T10:21:50.897Z,5.10
2022-12-08T10:24:23.937Z,4.10
2022-12-08T10:26:56.104Z,4.38
2022-12-08T10:29:30.643Z,4.32
2022-12-08T10:32:02.358Z,3.35
2022-12-08T10:34:32.679Z,3.55
2022-12-08T10:37:01.093Z,4.82
2022-12-08T10:39:32.520Z,3.95
2022-12-08T10:42:11.578Z,4.80
2022-12-08T10:44:52.728Z,4.15
2022-12-08T10:47:21.998Z,4.72
2022-12-08T10:50:19.076Z,4.25
2022-12-08T10:52:46.287Z,3.42
2022-12-08T10:55:17.722Z,4.25
2022-12-08T10:57:49.322Z,3.03
2022-12-08T11:00:18.362Z,4.65
2022-12-08T11:02:59.799Z,3.65
2022-12-08T11:05:41.722Z,3.97
2022-12-08T11:08:09.157Z,5.13
2022-12-08T11:10:46.727Z,4.40
2022-12-08T11:13:24.031Z,4.85
2022-12-08T11:15:52.347Z,4.65
2022-12-08T11:18:27.803Z,2.92
2022-12-08T11:21:21.369Z,3.33
2022-12-08T11:23:50.246Z,4.97
2022-12-08T11:26:33.934Z,3.92
2022-12-08T11:29:04.745Z,2.45
2022-12-08T11:31:36.824Z,3.65
2022-12-08T11:34:09.990Z,3.03
2022-12-08T11:36:42.979Z,3.67
2022-12-08T11:39:11.288Z,3.42
2022-12-08T11:41:48.293Z,3.50
2022-12-08T11:44:31.968Z,3.72
2022-12-08T11:47:03.828Z,4.07
2022-12-08T11:49:38.216Z,3.53
2022-12-08T11:52:25.889Z,3.22
2022-12-08T11:54:58.275Z,3.42
2022-12-08T11:57:28.929Z,4.55
2022-12-08T12:00:01.968Z,3.60
2022-12-08T12:02:30.645Z,2.20
2022-12-08T12:05:33.174Z,3.33
2022-12-08T12:08:22.549Z,3.25
2022-12-08T12:11:01.346Z,3.05
2022-12-08T12:13:42.085Z,3.30
2022-12-08T12:16:27.527Z,3.53
2022-12-08T12:19:00.082Z,3.45
2022-12-08T12:21:35.606Z,3.78
2022-12-08T12:24:10.438Z,3.60
2022-12-08T12:27:00.515Z,3.80
2022-12-08T12:29:33.050Z,3.92
2022-12-08T12:32:04.899Z,3.38
2022-12-08T12:34:44.940Z,1.60
2022-12-08T12:37:16.651Z,3.13
2022-12-08T12:40:03.937Z,3.17
2022-12-08T12:42:43.090Z,2.47
2022-12-08T12:45:30.616Z,3.20
2022-12-08T12:48:04.048Z,3.15
2022-12-08T12:50:39.931Z,3.95
2022-12-08T12:53:13.834Z,4.20
2022-12-08T12:55:50.170Z,3.75
2022-12-08T12:58:23.491Z,4.07
2022-12-08T13:00:55.180Z,4.80
2022-12-08T13:03:28.200Z,4.38
2022-12-08T13:05:58.137Z,3.80
2022-12-08T13:08:28.444Z,3.92
2022-12-08T13:11:01.138Z,5.07
2022-12-08T13:13:35.188Z,3.55
2022-12-08T13:16:19.115Z,3.83
2022-12-08T13:19:08.449Z,4.20
2022-12-08T13:21:36.865Z,3.67
2022-12-08T13:24:14.892Z,3.90
2022-12-08T13:26:52.368Z,4.88
2022-12-08T13:29:25.963Z,4.65
2022-12-08T13:32:00.616Z,4.00
2022-12-08T13:34:27.736Z,5.20
2022-12-08T13:37:01.722Z,4.55
2022-12-08T13:39:35.057Z,3.30
2022-12-08T13:42:28.167Z,3.10
2022-12-08T13:48:26.593Z,3.88
2022-12-08T13:54:53.752Z,3.58
2022-12-08T13:59:31.947Z,3.78
2022-12-08T14:02:08.117Z,3.17
2022-12-08T14:05:16.149Z,3.70
2022-12-08T14:07:36.321Z,4.25
2022-12-08T14:10:26.482Z,3.55
2022-12-08T14:13:04.443Z,4.32
2022-12-08T14:15:38.934Z,3.33
2022-12-08T14:18:22.171Z,1.55
2022-12-08T14:21:22.082Z,3.38
2022-12-08T14:23:52.259Z,3.35
2022-12-08T14:26:22.418Z,4.15
2022-12-08T14:28:53.401Z,3.85
2022-12-08T14:31:26.676Z,4.10
2022-12-08T14:33:57.545Z,2.45
2022-12-08T14:36:27.877Z,2.97
2022-12-08T14:38:56.410Z,3.97
2022-12-08T14:41:36.617Z,3.80
2022-12-08T14:44:24.142Z,4.03
2022-12-08T14:47:07.478Z,3.65
2022-12-08T14:49:41.050Z,3.33
2022-12-08T14:52:14.931Z,4.15
2022-12-08T14:54:43.842Z,3.33
2022-12-08T14:57:21.533Z,3.63
2022-12-08T14:59:52.492Z,2.95
2022-12-08T15:02:22.258Z,4.00
2022-12-08T15:05:00.618Z,3.55
2022-12-08T15:07:45.171Z,3.38
2022-12-08T15:10:20.805Z,3.72
2022-12-08T15:12:57.643Z,3.75
2022-12-08T15:15:27.786Z,4.15
2022-12-08T15:18:04.262Z,3.90
2022-12-08T15:20:37.296Z,4.05
2022-12-08T15:23:19.750Z,3.85
2022-12-08T15:25:50.171Z,3.72
2022-12-08T15:28:24.018Z,4.07
2022-12-08T15:30:57.389Z,3.95
2022-12-08T15:33:27.450Z,3.50
2022-12-08T15:35:58.795Z,4.20
2022-12-08T15:38:29.054Z,3.95
2022-12-08T15:41:02.024Z,3.55
2022-12-08T15:43:28.979Z,3.95
2022-12-08T15:46:00.223Z,3.85
2022-12-08T15:48:28.913Z,3.83
2022-12-08T15:51:02.064Z,3.90
2022-12-08T15:53:34.440Z,3.55
2022-12-08T15:56:26.828Z,3.45
2022-12-08T15:59:06.761Z,4.07
2022-12-08T16:01:33.851Z,4.05
2022-12-08T16:04:47.258Z,4.05
2022-12-08T16:07:20.405Z,3.85
2022-12-08T16:09:45.040Z,3.40
2022-12-08T16:13:26.881Z,4.07
2022-12-08T16:15:50.042Z,4.60
2022-12-08T16:18:16.133Z,4.47
2022-12-08T16:23:44.204Z,3.75
2022-12-08T16:26:28.359Z,3.55
2022-12-08T16:29:06.953Z,3.80
2022-12-08T16:31:34.335Z,4.07
2022-12-08T16:34:01.802Z,4.20
2022-12-08T16:36:29.068Z,3.88
2022-12-08T16:39:01.056Z,3.67
2022-12-08T16:41:46.626Z,3.47
2022-12-08T16:44:17.493Z,3.42
2022-12-08T16:46:44.608Z,3.45
2022-12-08T16:49:16.281Z,3.20
2022-12-08T16:51:44.169Z,3.15
2022-12-08T16:54:11.403Z,3.08
2022-12-08T16:56:41.903Z,3.38
2022-12-08T16:59:09.609Z,3.67
2022-12-08T17:01:44.102Z,3.67
2022-12-08T17:04:31.092Z,4.07
2022-12-08T17:07:00.578Z,3.70
2022-12-08T17:09:31.360Z,3.90
2022-12-08T17:12:03.443Z,2.72
2022-12-08T17:14:38.543Z,2.53
2022-12-08T17:17:06.577Z,2.85
2022-12-08T17:19:37.201Z,2.03
2022-12-08T17:22:08.612Z,3.05
2022-12-08T17:24:38.810Z,3.38
2022-12-08T17:27:11.730Z,3.40
2022-12-08T17:29:38.857Z,3.58
2022-12-08T17:32:09.475Z,3.38
2022-12-08T17:34:39.934Z,3.78
2022-12-08T17:37:09.969Z,3.05
2022-12-08T17:39:40.845Z,3.83
2022-12-08T17:42:11.041Z,3.08
2022-12-08T17:44:38.742Z,3.55
2022-12-08T17:47:08.764Z,3.38
2022-12-08T17:49:37.042Z,4.15
2022-12-08T17:52:11.660Z,4.72
2022-12-08T17:54:44.252Z,4.40
2022-12-08T17:57:14.216Z,4.93
2022-12-08T17:59:47.250Z,4.22
2022-12-08T18:02:21.825Z,4.93
2022-12-08T18:04:52.557Z,4.50
2022-12-08T18:07:25.239Z,2.42
2022-12-08T18:09:55.342Z,3.03
2022-12-08T18:12:27.561Z,2.90
2022-12-08T18:14:57.556Z,3.13
2022-12-08T18:17:27.017Z,2.83
2022-12-08T18:19:59.627Z,3.00
2022-12-08T18:22:30.331Z,2.95
2022-12-08T18:25:03.122Z,4.30
2022-12-08T18:27:42.759Z,3.30
2022-12-08T18:30:15.961Z,3.20
2022-12-08T18:32:50.716Z,3.05
2022-12-08T18:35:25.723Z,3.03
2022-12-08T18:37:52.587Z,3.50
2022-12-08T18:40:23.007Z,3.13
2022-12-08T18:42:54.055Z,3.30
2022-12-08T18:45:23.846Z,2.92
2022-12-08T18:47:55.050Z,3.60
2022-12-08T18:50:27.968Z,3.58
2022-12-08T18:53:04.085Z,3.88
2022-12-08T18:55:31.384Z,3.35
2022-12-08T18:58:05.358Z,2.95
2022-12-08T19:00:35.513Z,3.03
2022-12-08T19:03:05.754Z,2.75
2022-12-08T19:05:32.881Z,2.70
2022-12-08T19:08:03.077Z,3.10
2022-12-08T19:10:33.687Z,2.80
2022-12-08T19:13:06.356Z,3.08
2022-12-08T19:15:36.368Z,3.00
2022-12-08T19:18:06.681Z,2.47
2022-12-08T19:20:39.657Z,2.90
2022-12-08T19:23:09.170Z,3.17
2022-12-08T19:25:41.933Z,2.63
2022-12-08T19:28:12.093Z,2.72
2022-12-08T19:30:43.608Z,3.55
2022-12-08T19:33:16.169Z,3.15
2022-12-08T19:35:52.205Z,3.33
2022-12-08T19:38:23.532Z,1.35
2022-12-08T19:41:09.292Z,2.95
2022-12-08T19:43:57.371Z,3.15
2022-12-08T19:46:27.543Z,4.25
2022-12-08T19:49:00.864Z,3.75
2022-12-08T19:51:30.366Z,3.10
2022-12-08T19:54:04.486Z,4.18
2022-12-08T19:56:32.976Z,3.95
2022-12-08T19:59:03.299Z,4.03
2022-12-08T20:01:30.724Z,3.95
2022-12-08T20:04:03.873Z,4.15
2022-12-08T20:06:37.108Z,3.85
2022-12-08T20:09:07.836Z,4.20
2022-12-08T20:11:39.700Z,4.80
2022-12-08T20:14:10.142Z,4.38
2022-12-08T20:16:43.564Z,3.88
2022-12-08T20:19:13.415Z,4.50
2022-12-08T20:21:41.159Z,4.45
2022-12-08T20:24:15.369Z,4.43
2022-12-08T20:26:48.986Z,4.50
2022-12-08T20:29:21.739Z,4.35
2022-12-08T20:31:51.308Z,4.75
2022-12-08T20:34:24.251Z,3.63
2022-12-08T20:36:54.826Z,5.20
2022-12-08T20:39:27.978Z,4.50
2022-12-08T20:41:56.380Z,5.57
2022-12-08T20:44:23.387Z,4.40
2022-12-08T20:46:56.342Z,4.15
2022-12-08T20:49:34.406Z,3.78
2022-12-08T20:52:11.051Z,4.65
2022-12-08T20:54:41.463Z,3.92
2022-12-08T20:57:11.948Z,4.43
2022-12-08T20:59:44.950Z,4.35
2022-12-08T21:02:16.191Z,3.85
2022-12-08T21:04:43.428Z,4.13
2022-12-08T21:07:16.951Z,4.55
2022-12-08T21:09:44.257Z,3.97
2022-12-08T21:12:11.588Z,3.85
2022-12-08T21:14:38.702Z,4.20
2022-12-08T21:17:12.801Z,4.53
2022-12-08T21:19:43.071Z,4.13
2022-12-08T21:22:14.646Z,3.47
2022-12-08T21:24:48.120Z,3.80
2022-12-08T21:27:21.592Z,3.65
2022-12-08T21:29:49.694Z,3.55
2022-12-08T21:32:25.749Z,3.40
2022-12-08T21:35:03.432Z,3.75
2022-12-08T21:37:33.736Z,2.90
2022-12-08T21:40:04.297Z,4.05
2022-12-08T21:42:47.298Z,3.72
2022-12-08T21:45:19.508Z,3.67
2022-12-08T21:47:56.564Z,4.60
2022-12-08T21:50:24.431Z,3.72
2022-12-08T21:52:57.801Z,3.42
2022-12-08T21:55:25.059Z,3.05
2022-12-08T21:58:01.139Z,3.50
2022-12-08T22:00:34.492Z,3.53
2022-12-08T22:03:08.357Z,3.38
2022-12-08T22:05:40.617Z,3.50
2022-12-08T22:08:11.626Z,3.65
2022-12-08T22:10:46.934Z,3.67
2022-12-08T22:13:14.251Z,2.85
2022-12-08T22:15:41.273Z,3.08
2022-12-08T22:18:09.668Z,3.15
2022-12-08T22:20:44.582Z,3.10
2022-12-08T22:23:15.978Z,3.28
2022-12-08T22:25:44.432Z,3.05
2022-12-08T22:28:14.495Z,2.83
2022-12-08T22:30:41.806Z,3.00
2022-12-08T22:33:14.854Z,2.95
2022-12-08T22:35:48.646Z,2.83
2022-12-08T22:38:19.193Z,2.75
2022-12-08T22:40:52.268Z,2.63
2022-12-08T22:43:23.312Z,2.42
2022-12-08T22:45:56.857Z,2.83
2022-12-08T22:48:29.341Z,2.10
2022-12-08T22:51:03.530Z,2.80
2022-12-08T22:53:33.690Z,2.97
2022-12-08T22:56:05.994Z,2.72
2022-12-08T22:58:36.572Z,2.80
2022-12-08T23:01:12.380Z,2.78
2022-12-08T23:03:45.515Z,2.55
2022-12-08T23:06:13.499Z,2.60
2022-12-08T23:08:47.231Z,2.60
2022-12-08T23:11:17.782Z,2.67
2022-12-08T23:13:51.627Z,2.95
2022-12-08T23:16:18.667Z,3.00
2022-12-08T23:18:46.530Z,3.50
2022-12-08T23:21:18.520Z,2.85
2022-12-08T23:23:52.522Z,2.60
2022-12-08T23:26:29.828Z,2.85
2022-12-08T23:29:00.000Z,2.58
2022-12-08T23:31:30.494Z,2.97
2022-12-08T23:33:57.783Z,2.63
2022-12-08T23:36:27.720Z,2.95
2022-12-08T23:38:58.173Z,3.15
2022-12-08T23:41:25.746Z,2.85
2022-12-08T23:43:52.910Z,3.10
2022-12-08T23:46:24.609Z,2.50
2022-12-08T23:49:01.460Z,2.63
2022-12-08T23:51:32.052Z,3.50
2022-12-08T23:54:02.061Z,2.90
2022-12-08T23:56:38.171Z,2.88
2022-12-08T23:59:12.147Z,2.92
